sensor_id;sensor_type;location;lat;lon;timestamp;pressure;altitude;pressure_sealevel;temperature;humidity
6615;BME280;3343;42.896;23.912;2023-01-27T00:00:29;95834.75;;;6.53;73.66
6615;BME280;3343;42.896;23.912;2023-01-27T00:02:56;95830.13;;;6.25;73.82
6615;BME280;3343;42.896;23.912;2023-01-27T00:05:23;95832.41;;;6.43;73.50
6615;BME280;3343;42.896;23.912;2023-01-27T00:07:50;95826.28;;;6.36;73.13
6615;BME280;3343;42.896;23.912;2023-01-27T00:10:19;95823.94;;;6.41;73.97
6615;BME280;3343;42.896;23.912;2023-01-27T00:12:47;95816.38;;;6.46;73.88
6615;BME280;3343;42.896;23.912;2023-01-27T00:15:33;95828.34;;;6.41;74.25
6615;BME280;3343;42.896;23.912;2023-01-27T00:18:00;95839.69;;;6.33;74.27
6615;BME280;3343;42.896;23.912;2023-01-27T00:20:27;95846.19;;;5.99;74.22
6615;BME280;3343;42.896;23.912;2023-01-27T00:23:14;95856.00;;;6.20;74.17
6615;BME280;3343;42.896;23.912;2023-01-27T00:25:58;95851.03;;;6.02;74.79
6615;BME280;3343;42.896;23.912;2023-01-27T00:28:26;95850.59;;;6.36;73.72
6615;BME280;3343;42.896;23.912;2023-01-27T00:30:57;95847.81;;;6.38;73.35
6615;BME280;3343;42.896;23.912;2023-01-27T00:33:25;95835.00;;;6.28;73.71
6615;BME280;3343;42.896;23.912;2023-01-27T00:36:00;95821.50;;;6.39;73.58
6615;BME280;3343;42.896;23.912;2023-01-27T00:38:28;95802.13;;;6.19;74.31
6615;BME280;3343;42.896;23.912;2023-01-27T00:40:55;95792.75;;;6.25;73.96
6615;BME280;3343;42.896;23.912;2023-01-27T00:43:40;95798.22;;;6.15;74.83
6615;BME280;3343;42.896;23.912;2023-01-27T00:46:08;95810.50;;;6.29;74.84
6615;BME280;3343;42.896;23.912;2023-01-27T00:48:35;95806.28;;;6.05;74.81
6615;BME280;3343;42.896;23.912;2023-01-27T00:51:02;95803.47;;;6.15;74.45
6615;BME280;3343;42.896;23.912;2023-01-27T00:53:30;95812.41;;;6.35;73.68
6615;BME280;3343;42.896;23.912;2023-01-27T00:55:57;95810.06;;;6.41;73.41
6615;BME280;3343;42.896;23.912;2023-01-27T00:58:25;95814.94;;;5.83;75.43
6615;BME280;3343;42.896;23.912;2023-01-27T01:00:52;95813.44;;;5.66;76.46
6615;BME280;3343;42.896;23.912;2023-01-27T01:03:21;95817.38;;;5.85;75.67
6615;BME280;3343;42.896;23.912;2023-01-27T01:05:48;95819.47;;;5.66;75.88
6615;BME280;3343;42.896;23.912;2023-01-27T01:08:15;95809.25;;;5.80;75.45
6615;BME280;3343;42.896;23.912;2023-01-27T01:10:43;95828.06;;;5.75;75.44
6615;BME280;3343;42.896;23.912;2023-01-27T01:13:10;95833.00;;;5.93;75.12
6615;BME280;3343;42.896;23.912;2023-01-27T01:15:37;95823.66;;;5.98;74.81
6615;BME280;3343;42.896;23.912;2023-01-27T01:18:05;95833.41;;;5.82;75.63
6615;BME280;3343;42.896;23.912;2023-01-27T01:20:36;95830.16;;;5.80;75.29
6615;BME280;3343;42.896;23.912;2023-01-27T01:23:04;95828.19;;;5.82;75.52
6615;BME280;3343;42.896;23.912;2023-01-27T01:25:31;95823.47;;;6.00;75.28
6615;BME280;3343;42.896;23.912;2023-01-27T01:27:58;95828.34;;;6.03;75.09
6615;BME280;3343;42.896;23.912;2023-01-27T01:30:24;95822.63;;;6.07;74.20
6615;BME280;3343;42.896;23.912;2023-01-27T01:32:52;95816.91;;;6.04;74.55
6615;BME280;3343;42.896;23.912;2023-01-27T01:35:19;95805.91;;;5.94;75.00
6615;BME280;3343;42.896;23.912;2023-01-27T01:37:47;95794.56;;;6.24;74.98
6615;BME280;3343;42.896;23.912;2023-01-27T01:40:14;95784.59;;;6.05;74.32
6615;BME280;3343;42.896;23.912;2023-01-27T01:42:52;95783.38;;;6.30;74.10
6615;BME280;3343;42.896;23.912;2023-01-27T01:48:24;95793.56;;;6.55;73.65
6615;BME280;3343;42.896;23.912;2023-01-27T01:50:56;95790.69;;;6.35;73.62
6615;BME280;3343;42.896;23.912;2023-01-27T01:53:27;95792.56;;;6.26;74.04
6615;BME280;3343;42.896;23.912;2023-01-27T01:56:01;95788.88;;;6.35;73.70
6615;BME280;3343;42.896;23.912;2023-01-27T01:58:31;95769.16;;;6.18;73.33
6615;BME280;3343;42.896;23.912;2023-01-27T02:00:58;95763.59;;;5.75;75.22
6615;BME280;3343;42.896;23.912;2023-01-27T02:03:27;95768.75;;;5.84;75.30
6615;BME280;3343;42.896;23.912;2023-01-27T02:05:55;95745.97;;;5.78;75.38
6615;BME280;3343;42.896;23.912;2023-01-27T02:08:26;95748.53;;;5.63;76.26
6615;BME280;3343;42.896;23.912;2023-01-27T02:10:55;95739.47;;;5.73;76.10
6615;BME280;3343;42.896;23.912;2023-01-27T02:13:22;95739.44;;;5.59;75.93
6615;BME280;3343;42.896;23.912;2023-01-27T02:15:51;95737.84;;;5.72;76.28
6615;BME280;3343;42.896;23.912;2023-01-27T02:18:18;95736.75;;;5.67;76.25
6615;BME280;3343;42.896;23.912;2023-01-27T02:20:47;95734.63;;;5.85;75.90
6615;BME280;3343;42.896;23.912;2023-01-27T02:23:23;95721.09;;;5.90;75.42
6615;BME280;3343;42.896;23.912;2023-01-27T02:25:57;95706.97;;;5.61;76.92
6615;BME280;3343;42.896;23.912;2023-01-27T02:28:27;95722.16;;;5.58;77.31
6615;BME280;3343;42.896;23.912;2023-01-27T02:30:55;95717.25;;;5.78;76.44
6615;BME280;3343;42.896;23.912;2023-01-27T02:33:23;95725.78;;;5.71;76.52
6615;BME280;3343;42.896;23.912;2023-01-27T02:35:55;95728.31;;;5.80;76.32
6615;BME280;3343;42.896;23.912;2023-01-27T02:38:26;95722.94;;;5.81;75.68
6615;BME280;3343;42.896;23.912;2023-01-27T02:41:00;95709.31;;;5.71;76.45
6615;BME280;3343;42.896;23.912;2023-01-27T02:43:30;95713.53;;;5.57;76.39
6615;BME280;3343;42.896;23.912;2023-01-27T02:45:57;95712.72;;;5.57;76.98
6615;BME280;3343;42.896;23.912;2023-01-27T02:48:24;95719.00;;;5.48;77.39
6615;BME280;3343;42.896;23.912;2023-01-27T02:50:51;95727.44;;;5.50;77.65
6615;BME280;3343;42.896;23.912;2023-01-27T02:53:18;95728.53;;;5.55;77.52
6615;BME280;3343;42.896;23.912;2023-01-27T02:55:44;95727.91;;;5.53;76.89
6615;BME280;3343;42.896;23.912;2023-01-27T02:58:13;95738.91;;;5.63;77.24
6615;BME280;3343;42.896;23.912;2023-01-27T03:00:41;95735.38;;;5.56;76.65
6615;BME280;3343;42.896;23.912;2023-01-27T03:03:08;95743.34;;;5.40;77.24
6615;BME280;3343;42.896;23.912;2023-01-27T03:05:35;95743.88;;;5.35;77.48
6615;BME280;3343;42.896;23.912;2023-01-27T03:08:02;95741.16;;;4.98;79.35
6615;BME280;3343;42.896;23.912;2023-01-27T03:10:29;95735.47;;;4.94;79.53
6615;BME280;3343;42.896;23.912;2023-01-27T03:12:55;95733.13;;;4.76;80.96
6615;BME280;3343;42.896;23.912;2023-01-27T03:15:24;95728.28;;;4.96;80.68
6615;BME280;3343;42.896;23.912;2023-01-27T03:18:10;95716.31;;;5.10;80.63
6615;BME280;3343;42.896;23.912;2023-01-27T03:20:38;95711.72;;;5.12;80.23
6615;BME280;3343;42.896;23.912;2023-01-27T03:23:06;95699.88;;;5.32;80.06
6615;BME280;3343;42.896;23.912;2023-01-27T03:25:33;95683.09;;;5.50;78.51
6615;BME280;3343;42.896;23.912;2023-01-27T03:28:01;95682.78;;;5.82;77.64
6615;BME280;3343;42.896;23.912;2023-01-27T03:30:29;95688.28;;;5.35;80.42
6615;BME280;3343;42.896;23.912;2023-01-27T03:32:56;95692.59;;;5.20;80.60
6615;BME280;3343;42.896;23.912;2023-01-27T03:35:23;95686.75;;;5.18;80.12
6615;BME280;3343;42.896;23.912;2023-01-27T03:37:59;95682.72;;;5.38;79.51
6615;BME280;3343;42.896;23.912;2023-01-27T03:40:43;95668.41;;;5.49;78.36
6615;BME280;3343;42.896;23.912;2023-01-27T03:43:27;95672.09;;;5.17;79.06
6615;BME280;3343;42.896;23.912;2023-01-27T03:46:13;95682.06;;;5.36;78.80
6615;BME280;3343;42.896;23.912;2023-01-27T03:48:47;95656.66;;;4.30;82.69
6615;BME280;3343;42.896;23.912;2023-01-27T03:51:16;95676.19;;;4.34;83.38
6615;BME280;3343;42.896;23.912;2023-01-27T03:53:43;95676.84;;;4.36;83.15
6615;BME280;3343;42.896;23.912;2023-01-27T03:56:10;95683.66;;;4.29;83.83
6615;BME280;3343;42.896;23.912;2023-01-27T03:58:37;95680.16;;;5.07;80.44
6615;BME280;3343;42.896;23.912;2023-01-27T04:01:06;95680.63;;;5.33;78.98
6615;BME280;3343;42.896;23.912;2023-01-27T04:03:35;95681.84;;;5.60;77.72
6615;BME280;3343;42.896;23.912;2023-01-27T04:06:20;95700.72;;;5.48;77.33
6615;BME280;3343;42.896;23.912;2023-01-27T04:09:05;95727.84;;;5.16;79.05
6615;BME280;3343;42.896;23.912;2023-01-27T04:11:32;95724.81;;;4.81;79.91
6615;BME280;3343;42.896;23.912;2023-01-27T04:14:16;95718.78;;;4.80;80.32
6615;BME280;3343;42.896;23.912;2023-01-27T04:16:44;95700.69;;;4.79;81.16
6615;BME280;3343;42.896;23.912;2023-01-27T04:19:12;95708.22;;;4.74;81.96
6615;BME280;3343;42.896;23.912;2023-01-27T04:21:39;95724.88;;;4.96;81.33
6615;BME280;3343;42.896;23.912;2023-01-27T04:24:07;95739.59;;;5.11;80.20
6615;BME280;3343;42.896;23.912;2023-01-27T04:26:42;95736.28;;;4.95;80.75
6615;BME280;3343;42.896;23.912;2023-01-27T04:29:11;95737.72;;;5.28;79.88
6615;BME280;3343;42.896;23.912;2023-01-27T04:31:39;95732.84;;;5.25;79.12
6615;BME280;3343;42.896;23.912;2023-01-27T04:34:07;95718.97;;;5.02;79.54
6615;BME280;3343;42.896;23.912;2023-01-27T04:36:37;95736.47;;;5.16;79.79
6615;BME280;3343;42.896;23.912;2023-01-27T04:39:05;95732.31;;;4.76;81.94
6615;BME280;3343;42.896;23.912;2023-01-27T04:41:32;95735.13;;;4.27;83.42
6615;BME280;3343;42.896;23.912;2023-01-27T04:44:00;95734.81;;;4.22;83.59
6615;BME280;3343;42.896;23.912;2023-01-27T04:46:27;95746.47;;;4.42;82.94
6615;BME280;3343;42.896;23.912;2023-01-27T04:48:54;95750.91;;;5.04;80.96
6615;BME280;3343;42.896;23.912;2023-01-27T04:51:21;95756.00;;;5.28;79.35
6615;BME280;3343;42.896;23.912;2023-01-27T04:53:49;95748.19;;;5.66;78.59
6615;BME280;3343;42.896;23.912;2023-01-27T04:56:24;95750.09;;;5.95;77.11
6615;BME280;3343;42.896;23.912;2023-01-27T04:58:51;95746.97;;;5.76;77.37
6615;BME280;3343;42.896;23.912;2023-01-27T05:01:19;95745.72;;;5.87;77.27
6615;BME280;3343;42.896;23.912;2023-01-27T05:03:45;95732.22;;;5.84;77.37
6615;BME280;3343;42.896;23.912;2023-01-27T05:06:13;95729.50;;;5.77;78.49
6615;BME280;3343;42.896;23.912;2023-01-27T05:08:42;95715.16;;;5.96;77.57
6615;BME280;3343;42.896;23.912;2023-01-27T05:11:10;95715.38;;;5.86;77.75
6615;BME280;3343;42.896;23.912;2023-01-27T05:13:37;95718.59;;;5.36;78.85
6615;BME280;3343;42.896;23.912;2023-01-27T05:16:07;95714.75;;;5.47;79.32
6615;BME280;3343;42.896;23.912;2023-01-27T05:18:35;95704.06;;;5.56;78.67
6615;BME280;3343;42.896;23.912;2023-01-27T05:21:03;95710.97;;;5.87;77.30
6615;BME280;3343;42.896;23.912;2023-01-27T05:23:30;95718.53;;;5.82;76.28
6615;BME280;3343;42.896;23.912;2023-01-27T05:26:02;95718.53;;;5.82;76.71
6615;BME280;3343;42.896;23.912;2023-01-27T05:28:30;95718.56;;;5.96;77.00
6615;BME280;3343;42.896;23.912;2023-01-27T05:31:04;95719.44;;;5.89;76.73
6615;BME280;3343;42.896;23.912;2023-01-27T05:33:32;95712.28;;;5.30;78.12
6615;BME280;3343;42.896;23.912;2023-01-27T05:36:00;95708.13;;;4.90;81.63
6615;BME280;3343;42.896;23.912;2023-01-27T05:38:27;95713.16;;;4.92;82.46
6615;BME280;3343;42.896;23.912;2023-01-27T05:40:55;95716.25;;;4.95;82.49
6615;BME280;3343;42.896;23.912;2023-01-27T05:43:23;95707.66;;;5.09;81.96
6615;BME280;3343;42.896;23.912;2023-01-27T05:45:52;95707.22;;;5.29;81.80
6615;BME280;3343;42.896;23.912;2023-01-27T05:48:18;95694.47;;;5.11;81.19
6615;BME280;3343;42.896;23.912;2023-01-27T05:50:54;95712.81;;;5.63;80.05
6615;BME280;3343;42.896;23.912;2023-01-27T05:53:21;95706.63;;;5.79;78.97
6615;BME280;3343;42.896;23.912;2023-01-27T05:55:49;95706.50;;;5.58;79.37
6615;BME280;3343;42.896;23.912;2023-01-27T05:58:17;95704.25;;;5.55;79.71
6615;BME280;3343;42.896;23.912;2023-01-27T06:00:44;95714.00;;;5.75;79.09
6615;BME280;3343;42.896;23.912;2023-01-27T06:03:13;95716.44;;;5.77;79.39
6615;BME280;3343;42.896;23.912;2023-01-27T06:05:48;95708.53;;;5.85;79.17
6615;BME280;3343;42.896;23.912;2023-01-27T06:08:15;95694.66;;;5.70;79.18
6615;BME280;3343;42.896;23.912;2023-01-27T06:10:43;95699.97;;;5.76;78.96
6615;BME280;3343;42.896;23.912;2023-01-27T06:13:09;95696.69;;;5.60;79.32
6615;BME280;3343;42.896;23.912;2023-01-27T06:15:39;95695.09;;;5.73;80.00
6615;BME280;3343;42.896;23.912;2023-01-27T06:18:06;95712.19;;;5.61;79.96
6615;BME280;3343;42.896;23.912;2023-01-27T06:20:34;95725.00;;;5.86;79.24
6615;BME280;3343;42.896;23.912;2023-01-27T06:23:01;95735.44;;;5.86;78.83
6615;BME280;3343;42.896;23.912;2023-01-27T06:25:28;95737.22;;;5.93;78.17
6615;BME280;3343;42.896;23.912;2023-01-27T06:27:56;95742.56;;;6.15;77.51
6615;BME280;3343;42.896;23.912;2023-01-27T06:30:23;95739.66;;;5.72;79.35
6615;BME280;3343;42.896;23.912;2023-01-27T06:32:50;95747.22;;;5.82;78.93
6615;BME280;3343;42.896;23.912;2023-01-27T06:35:17;95731.66;;;5.73;78.94
6615;BME280;3343;42.896;23.912;2023-01-27T06:37:45;95757.53;;;6.21;78.77
6615;BME280;3343;42.896;23.912;2023-01-27T06:40:12;95747.78;;;6.15;77.80
6615;BME280;3343;42.896;23.912;2023-01-27T06:42:41;95743.47;;;6.07;77.56
6615;BME280;3343;42.896;23.912;2023-01-27T06:45:08;95742.75;;;6.13;77.57
6615;BME280;3343;42.896;23.912;2023-01-27T06:47:36;95755.81;;;6.13;76.72
6615;BME280;3343;42.896;23.912;2023-01-27T06:50:03;95758.00;;;5.41;79.14
6615;BME280;3343;42.896;23.912;2023-01-27T06:52:30;95742.41;;;5.56;79.17
6615;BME280;3343;42.896;23.912;2023-01-27T06:54:58;95744.44;;;5.46;80.25
6615;BME280;3343;42.896;23.912;2023-01-27T06:57:25;95754.47;;;4.80;82.96
6615;BME280;3343;42.896;23.912;2023-01-27T06:59:52;95753.97;;;5.07;81.83
6615;BME280;3343;42.896;23.912;2023-01-27T07:02:19;95761.78;;;5.38;80.41
6615;BME280;3343;42.896;23.912;2023-01-27T07:04:46;95771.69;;;5.20;81.06
6615;BME280;3343;42.896;23.912;2023-01-27T07:07:13;95777.38;;;4.93;82.79
6615;BME280;3343;42.896;23.912;2023-01-27T07:09:40;95779.59;;;5.04;82.12
6615;BME280;3343;42.896;23.912;2023-01-27T07:12:08;95784.97;;;5.33;81.89
6615;BME280;3343;42.896;23.912;2023-01-27T07:14:34;95783.50;;;5.00;83.01
6615;BME280;3343;42.896;23.912;2023-01-27T07:17:01;95774.84;;;5.07;82.93
6615;BME280;3343;42.896;23.912;2023-01-27T07:19:28;95764.41;;;5.38;81.86
6615;BME280;3343;42.896;23.912;2023-01-27T07:21:55;95756.91;;;5.35;81.72
6615;BME280;3343;42.896;23.912;2023-01-27T07:24:22;95752.69;;;5.34;81.60
6615;BME280;3343;42.896;23.912;2023-01-27T07:26:49;95748.16;;;4.97;83.00
6615;BME280;3343;42.896;23.912;2023-01-27T07:29:17;95745.25;;;5.23;82.65
6615;BME280;3343;42.896;23.912;2023-01-27T07:31:44;95744.06;;;5.03;82.73
6615;BME280;3343;42.896;23.912;2023-01-27T07:34:11;95748.63;;;5.32;82.03
6615;BME280;3343;42.896;23.912;2023-01-27T07:36:38;95750.75;;;5.51;81.04
6615;BME280;3343;42.896;23.912;2023-01-27T07:39:04;95755.94;;;5.74;80.40
6615;BME280;3343;42.896;23.912;2023-01-27T07:41:33;95748.09;;;5.97;79.46
6615;BME280;3343;42.896;23.912;2023-01-27T07:43:59;95759.13;;;6.07;78.32
6615;BME280;3343;42.896;23.912;2023-01-27T07:46:28;95754.91;;;6.50;76.59
6615;BME280;3343;42.896;23.912;2023-01-27T07:48:54;95748.06;;;6.20;77.90
6615;BME280;3343;42.896;23.912;2023-01-27T07:51:21;95758.50;;;6.49;77.07
6615;BME280;3343;42.896;23.912;2023-01-27T07:53:48;95762.66;;;6.44;75.09
6615;BME280;3343;42.896;23.912;2023-01-27T07:56:15;95755.38;;;6.39;75.67
6615;BME280;3343;42.896;23.912;2023-01-27T07:58:42;95748.78;;;6.58;75.08
6615;BME280;3343;42.896;23.912;2023-01-27T08:01:10;95744.84;;;6.98;74.68
6615;BME280;3343;42.896;23.912;2023-01-27T08:03:39;95741.69;;;7.02;74.66
6615;BME280;3343;42.896;23.912;2023-01-27T08:06:06;95736.97;;;7.13;74.66
6615;BME280;3343;42.896;23.912;2023-01-27T08:08:34;95750.38;;;6.74;75.15
6615;BME280;3343;42.896;23.912;2023-01-27T08:11:04;95747.56;;;6.75;75.63
6615;BME280;3343;42.896;23.912;2023-01-27T08:13:33;95748.84;;;6.79;76.15
6615;BME280;3343;42.896;23.912;2023-01-27T08:16:01;95767.06;;;6.58;75.67
6615;BME280;3343;42.896;23.912;2023-01-27T08:18:29;95759.03;;;6.59;75.79
6615;BME280;3343;42.896;23.912;2023-01-27T08:21:00;95757.47;;;7.30;74.12
6615;BME280;3343;42.896;23.912;2023-01-27T08:23:27;95755.09;;;7.14;74.06
6615;BME280;3343;42.896;23.912;2023-01-27T08:25:57;95748.06;;;7.15;75.74
6615;BME280;3343;42.896;23.912;2023-01-27T08:28:25;95746.94;;;7.24;75.86
6615;BME280;3343;42.896;23.912;2023-01-27T08:30:52;95754.09;;;7.15;75.67
6615;BME280;3343;42.896;23.912;2023-01-27T08:33:21;95754.16;;;7.22;75.60
6615;BME280;3343;42.896;23.912;2023-01-27T08:35:50;95745.06;;;7.39;74.65
6615;BME280;3343;42.896;23.912;2023-01-27T08:38:18;95741.16;;;7.28;75.30
6615;BME280;3343;42.896;23.912;2023-01-27T08:40:46;95748.38;;;7.48;74.71
6615;BME280;3343;42.896;23.912;2023-01-27T08:43:13;95752.50;;;7.57;73.99
6615;BME280;3343;42.896;23.912;2023-01-27T08:45:42;95750.56;;;7.87;73.48
6615;BME280;3343;42.896;23.912;2023-01-27T08:48:10;95757.22;;;7.89;71.20
6615;BME280;3343;42.896;23.912;2023-01-27T08:50:36;95752.56;;;7.85;71.26
6615;BME280;3343;42.896;23.912;2023-01-27T08:53:03;95756.41;;;7.89;71.24
6615;BME280;3343;42.896;23.912;2023-01-27T08:55:32;95761.19;;;8.35;70.37
6615;BME280;3343;42.896;23.912;2023-01-27T08:57:59;95754.59;;;8.17;70.12
6615;BME280;3343;42.896;23.912;2023-01-27T09:00:26;95761.00;;;8.08;69.33
6615;BME280;3343;42.896;23.912;2023-01-27T09:02:52;95758.19;;;8.38;69.29
6615;BME280;3343;42.896;23.912;2023-01-27T09:05:19;95758.50;;;8.56;67.88
6615;BME280;3343;42.896;23.912;2023-01-27T09:07:48;95753.25;;;8.56;68.49
6615;BME280;3343;42.896;23.912;2023-01-27T09:10:15;95756.06;;;8.26;69.64
6615;BME280;3343;42.896;23.912;2023-01-27T09:12:44;95752.94;;;8.38;68.66
6615;BME280;3343;42.896;23.912;2023-01-27T09:15:12;95746.50;;;8.12;70.79
6615;BME280;3343;42.896;23.912;2023-01-27T09:17:39;95751.66;;;7.99;70.03
6615;BME280;3343;42.896;23.912;2023-01-27T09:20:07;95747.19;;;7.93;70.06
6615;BME280;3343;42.896;23.912;2023-01-27T09:22:35;95738.69;;;7.91;70.81
6615;BME280;3343;42.896;23.912;2023-01-27T09:25:05;95735.69;;;7.94;71.83
6615;BME280;3343;42.896;23.912;2023-01-27T09:27:32;95743.47;;;8.09;71.53
6615;BME280;3343;42.896;23.912;2023-01-27T09:30:00;95734.34;;;8.32;69.81
6615;BME280;3343;42.896;23.912;2023-01-27T09:32:27;95727.81;;;8.22;70.31
6615;BME280;3343;42.896;23.912;2023-01-27T09:34:54;95729.75;;;8.35;70.30
6615;BME280;3343;42.896;23.912;2023-01-27T09:37:21;95726.16;;;8.42;69.67
6615;BME280;3343;42.896;23.912;2023-01-27T09:39:51;95710.75;;;8.32;69.38
6615;BME280;3343;42.896;23.912;2023-01-27T09:42:37;95713.31;;;8.54;68.68
6615;BME280;3343;42.896;23.912;2023-01-27T09:45:38;95708.78;;;8.35;68.40
6615;BME280;3343;42.896;23.912;2023-01-27T09:48:26;95709.06;;;8.18;70.34
6615;BME280;3343;42.896;23.912;2023-01-27T09:51:00;95710.91;;;8.24;69.90
6615;BME280;3343;42.896;23.912;2023-01-27T09:53:50;95706.13;;;8.69;67.66
6615;BME280;3343;42.896;23.912;2023-01-27T09:56:29;95707.97;;;8.75;66.69
6615;BME280;3343;42.896;23.912;2023-01-27T09:59:11;95707.50;;;8.30;68.71
6615;BME280;3343;42.896;23.912;2023-01-27T10:01:52;95708.66;;;7.87;70.75
6615;BME280;3343;42.896;23.912;2023-01-27T10:04:46;95708.69;;;7.93;70.66
6615;BME280;3343;42.896;23.912;2023-01-27T10:07:32;95706.09;;;7.72;71.70
6615;BME280;3343;42.896;23.912;2023-01-27T10:10:19;95714.50;;;7.67;72.74
6615;BME280;3343;42.896;23.912;2023-01-27T10:13:05;95713.13;;;7.93;71.02
6615;BME280;3343;42.896;23.912;2023-01-27T10:15:44;95710.31;;;7.73;73.11
6615;BME280;3343;42.896;23.912;2023-01-27T10:18:27;95710.22;;;7.81;73.22
6615;BME280;3343;42.896;23.912;2023-01-27T10:21:04;95707.50;;;7.96;71.81
6615;BME280;3343;42.896;23.912;2023-01-27T10:23:43;95708.03;;;7.85;71.98
6615;BME280;3343;42.896;23.912;2023-01-27T10:26:22;95707.94;;;7.78;72.42
6615;BME280;3343;42.896;23.912;2023-01-27T10:28:50;95694.69;;;8.08;72.04
6615;BME280;3343;42.896;23.912;2023-01-27T10:31:24;95693.28;;;8.40;70.85
6615;BME280;3343;42.896;23.912;2023-01-27T10:33:56;95695.78;;;8.26;69.92
6615;BME280;3343;42.896;23.912;2023-01-27T10:36:27;95693.94;;;8.20;70.23
6615;BME280;3343;42.896;23.912;2023-01-27T10:39:05;95697.97;;;8.51;68.78
6615;BME280;3343;42.896;23.912;2023-01-27T10:41:42;95689.41;;;8.36;69.98
6615;BME280;3343;42.896;23.912;2023-01-27T10:44:26;95696.34;;;8.50;69.08
6615;BME280;3343;42.896;23.912;2023-01-27T10:47:00;95688.84;;;8.40;69.37
6615;BME280;3343;42.896;23.912;2023-01-27T10:49:39;95689.09;;;8.52;68.63
6615;BME280;3343;42.896;23.912;2023-01-27T10:52:12;95686.25;;;8.47;69.66
6615;BME280;3343;42.896;23.912;2023-01-27T10:54:43;95685.44;;;8.46;69.92
6615;BME280;3343;42.896;23.912;2023-01-27T10:57:22;95675.72;;;8.40;69.77
6615;BME280;3343;42.896;23.912;2023-01-27T10:59:56;95686.47;;;8.52;69.46
6615;BME280;3343;42.896;23.912;2023-01-27T11:02:35;95681.44;;;8.57;67.07
6615;BME280;3343;42.896;23.912;2023-01-27T11:05:12;95674.94;;;8.46;67.89
6615;BME280;3343;42.896;23.912;2023-01-27T11:07:46;95671.56;;;8.59;66.74
6615;BME280;3343;42.896;23.912;2023-01-27T11:10:17;95667.00;;;8.74;66.78
6615;BME280;3343;42.896;23.912;2023-01-27T11:12:47;95663.38;;;8.75;65.24
6615;BME280;3343;42.896;23.912;2023-01-27T11:15:19;95671.44;;;8.74;65.00
6615;BME280;3343;42.896;23.912;2023-01-27T11:17:53;95665.72;;;8.63;65.81
6615;BME280;3343;42.896;23.912;2023-01-27T11:20:27;95661.44;;;8.49;66.05
6615;BME280;3343;42.896;23.912;2023-01-27T11:22:59;95663.56;;;8.32;66.86
6615;BME280;3343;42.896;23.912;2023-01-27T11:25:42;95671.75;;;8.16;69.32
6615;BME280;3343;42.896;23.912;2023-01-27T11:28:19;95662.00;;;8.38;67.77
6615;BME280;3343;42.896;23.912;2023-01-27T11:30:56;95657.88;;;8.22;68.52
6615;BME280;3343;42.896;23.912;2023-01-27T11:33:30;95659.81;;;8.42;68.12
6615;BME280;3343;42.896;23.912;2023-01-27T11:36:03;95663.22;;;8.42;66.84
6615;BME280;3343;42.896;23.912;2023-01-27T11:38:30;95666.03;;;8.41;66.58
6615;BME280;3343;42.896;23.912;2023-01-27T11:40:57;95663.03;;;8.44;66.92
6615;BME280;3343;42.896;23.912;2023-01-27T11:43:25;95664.69;;;8.58;66.77
6615;BME280;3343;42.896;23.912;2023-01-27T11:45:56;95657.41;;;8.47;67.01
6615;BME280;3343;42.896;23.912;2023-01-27T11:48:29;95660.72;;;8.27;67.57
6615;BME280;3343;42.896;23.912;2023-01-27T11:51:02;95666.44;;;8.38;67.48
6615;BME280;3343;42.896;23.912;2023-01-27T11:53:34;95663.47;;;8.54;67.13
6615;BME280;3343;42.896;23.912;2023-01-27T11:56:08;95654.06;;;8.31;69.14
6615;BME280;3343;42.896;23.912;2023-01-27T11:58:40;95657.53;;;7.97;71.39
6615;BME280;3343;42.896;23.912;2023-01-27T12:01:14;95656.34;;;8.00;72.03
6615;BME280;3343;42.896;23.912;2023-01-27T12:03:48;95640.53;;;7.87;72.45
6615;BME280;3343;42.896;23.912;2023-01-27T12:06:25;95662.53;;;7.92;72.74
6615;BME280;3343;42.896;23.912;2023-01-27T12:08:54;95660.81;;;7.78;72.98
6615;BME280;3343;42.896;23.912;2023-01-27T12:11:24;95670.66;;;8.04;72.58
6615;BME280;3343;42.896;23.912;2023-01-27T12:13:53;95665.88;;;8.14;71.50
6615;BME280;3343;42.896;23.912;2023-01-27T12:16:25;95667.50;;;8.15;71.57
6615;BME280;3343;42.896;23.912;2023-01-27T12:18:59;95663.19;;;8.01;72.01
6615;BME280;3343;42.896;23.912;2023-01-27T12:21:44;95660.66;;;8.14;72.60
6615;BME280;3343;42.896;23.912;2023-01-27T12:24:20;95657.44;;;8.19;72.79
6615;BME280;3343;42.896;23.912;2023-01-27T12:26:50;95664.66;;;8.10;72.62
6615;BME280;3343;42.896;23.912;2023-01-27T12:29:20;95662.81;;;8.04;73.23
6615;BME280;3343;42.896;23.912;2023-01-27T12:31:52;95660.97;;;7.98;73.49
6615;BME280;3343;42.896;23.912;2023-01-27T12:34:26;95663.50;;;8.19;73.13
6615;BME280;3343;42.896;23.912;2023-01-27T12:36:56;95669.84;;;8.04;73.33
6615;BME280;3343;42.896;23.912;2023-01-27T12:39:32;95661.00;;;8.05;72.57
6615;BME280;3343;42.896;23.912;2023-01-27T12:42:02;95668.97;;;7.90;72.82
6615;BME280;3343;42.896;23.912;2023-01-27T12:44:40;95669.34;;;8.21;72.33
6615;BME280;3343;42.896;23.912;2023-01-27T12:47:20;95663.56;;;8.32;71.46
6615;BME280;3343;42.896;23.912;2023-01-27T12:49:49;95664.03;;;8.08;70.48
6615;BME280;3343;42.896;23.912;2023-01-27T12:52:20;95670.13;;;8.15;70.30
6615;BME280;3343;42.896;23.912;2023-01-27T12:54:47;95669.41;;;7.93;72.02
6615;BME280;3343;42.896;23.912;2023-01-27T12:57:18;95668.53;;;8.21;71.68
6615;BME280;3343;42.896;23.912;2023-01-27T12:59:49;95665.50;;;8.17;70.95
6615;BME280;3343;42.896;23.912;2023-01-27T13:02:19;95649.94;;;8.09;70.13
6615;BME280;3343;42.896;23.912;2023-01-27T13:04:51;95669.41;;;7.93;70.84
6615;BME280;3343;42.896;23.912;2023-01-27T13:07:24;95672.41;;;7.41;71.27
6615;BME280;3343;42.896;23.912;2023-01-27T13:09:54;95675.22;;;7.18;73.68
6615;BME280;3343;42.896;23.912;2023-01-27T13:12:23;95675.41;;;7.17;74.52
6615;BME280;3343;42.896;23.912;2023-01-27T13:14:54;95676.88;;;6.47;75.21
6615;BME280;3343;42.896;23.912;2023-01-27T13:17:31;95682.22;;;6.75;75.60
6615;BME280;3343;42.896;23.912;2023-01-27T13:20:05;95681.66;;;7.16;73.88
6615;BME280;3343;42.896;23.912;2023-01-27T13:22:41;95682.22;;;7.32;72.82
6615;BME280;3343;42.896;23.912;2023-01-27T13:25:16;95684.09;;;7.66;72.94
6615;BME280;3343;42.896;23.912;2023-01-27T13:27:45;95688.84;;;7.56;72.35
6615;BME280;3343;42.896;23.912;2023-01-27T13:30:20;95685.44;;;7.13;74.08
6615;BME280;3343;42.896;23.912;2023-01-27T13:32:51;95683.88;;;6.61;74.82
6615;BME280;3343;42.896;23.912;2023-01-27T13:35:24;95694.78;;;6.65;75.68
6615;BME280;3343;42.896;23.912;2023-01-27T13:38:02;95699.25;;;6.71;76.68
6615;BME280;3343;42.896;23.912;2023-01-27T13:40:35;95704.56;;;7.14;74.82
6615;BME280;3343;42.896;23.912;2023-01-27T13:43:09;95706.38;;;7.34;74.57